createdAt,value
2023-02-24T00:01:40.248Z,4.27
2023-02-24T00:04:26.383Z,4.23
2023-02-24T00:07:12.871Z,4.15
2023-02-24T00:10:00.013Z,4.12
2023-02-24T00:12:46.981Z,4.14
2023-02-24T00:15:32.855Z,4.07
2023-02-24T00:18:18.709Z,4.04
2023-02-24T00:21:08.110Z,4.05
2023-02-24T00:23:54.485Z,4.03
2023-02-24T00:26:41.602Z,3.99
2023-02-24T00:29:27.696Z,3.99
2023-02-24T00:32:14.744Z,3.95
2023-02-24T00:35:00.866Z,3.93
2023-02-24T00:37:51.149Z,3.89
2023-02-24T00:40:38.022Z,3.87
2023-02-24T00:43:25.393Z,3.87
2023-02-24T00:46:13.903Z,3.85
2023-02-24T00:48:59.842Z,3.82
2023-02-24T00:51:46.814Z,3.85
2023-02-24T00:54:36.059Z,3.85
2023-02-24T00:57:22.219Z,3.86
2023-02-24T01:00:16.430Z,3.87
2023-02-24T01:03:02.474Z,3.86
2023-02-24T01:05:49.267Z,3.84
2023-02-24T01:08:36.420Z,3.86
2023-02-24T01:11:52.129Z,3.87
2023-02-24T01:14:39.631Z,3.85
2023-02-24T01:17:26.621Z,3.79
2023-02-24T01:20:16.998Z,3.86
2023-02-24T01:23:03.325Z,3.85
2023-02-24T01:25:49.272Z,3.86
2023-02-24T01:28:35.276Z,3.85
2023-02-24T01:31:21.568Z,3.85
2023-02-24T01:34:12.930Z,3.86
2023-02-24T01:36:58.567Z,3.86
2023-02-24T01:39:45.123Z,3.87
2023-02-24T01:42:32.718Z,3.83
2023-02-24T01:45:21.277Z,3.79
2023-02-24T01:48:07.912Z,3.83
2023-02-24T01:50:55.025Z,3.81
2023-02-24T01:53:40.700Z,3.80
2023-02-24T01:56:29.515Z,3.78
2023-02-24T01:59:16.174Z,3.78
2023-02-24T02:02:06.786Z,3.77
2023-02-24T02:04:53.867Z,3.77
2023-02-24T02:07:41.300Z,3.78
2023-02-24T02:10:28.869Z,3.77
2023-02-24T02:13:16.156Z,3.77
2023-02-24T02:16:17.020Z,3.76
2023-02-24T02:19:06.918Z,3.74
2023-02-24T02:22:10.882Z,3.76
2023-02-24T02:24:59.568Z,3.70
2023-02-24T02:28:00.486Z,3.64
2023-02-24T02:30:52.950Z,3.69
2023-02-24T02:33:52.853Z,3.66
2023-02-24T02:36:40.330Z,3.64
2023-02-24T02:39:32.782Z,3.64
2023-02-24T02:42:24.184Z,3.64
2023-02-24T02:45:11.019Z,3.55
2023-02-24T02:47:59.152Z,3.53
2023-02-24T02:50:49.228Z,3.56
2023-02-24T02:53:37.401Z,3.55
2023-02-24T02:56:24.923Z,3.49
2023-02-24T02:59:12.608Z,3.53
2023-02-24T03:02:01.114Z,3.48
2023-02-24T03:04:50.826Z,3.47
2023-02-24T03:07:40.357Z,3.42
2023-02-24T03:10:27.574Z,3.40
2023-02-24T03:13:13.359Z,3.42
2023-02-24T03:16:01.663Z,3.40
2023-02-24T03:18:50.813Z,3.37
2023-02-24T03:21:38.168Z,3.33
2023-02-24T03:24:27.906Z,3.28
2023-02-24T03:27:20.053Z,3.28
2023-02-24T03:30:07.691Z,3.22
2023-02-24T03:32:54.851Z,3.23
2023-02-24T03:35:42.405Z,3.17
2023-02-24T03:38:30.489Z,3.23
2023-02-24T03:41:18.313Z,3.20
2023-02-24T03:44:04.627Z,3.19
2023-02-24T03:46:51.648Z,3.16
2023-02-24T03:49:38.505Z,3.16
2023-02-24T03:52:29.387Z,3.13
2023-02-24T03:55:17.830Z,3.12
2023-02-24T03:58:08.298Z,3.07
2023-02-24T04:00:59.752Z,3.10
2023-02-24T04:03:48.584Z,3.09
2023-02-24T04:06:44.918Z,3.03
2023-02-24T04:09:33.253Z,3.04
2023-02-24T04:12:26.992Z,3.07
2023-02-24T04:15:21.000Z,3.04
2023-02-24T04:18:08.052Z,3.00
2023-02-24T04:20:59.619Z,2.97
2023-02-24T04:23:46.170Z,2.98
2023-02-24T04:26:31.859Z,2.95
2023-02-24T04:29:20.480Z,2.94
2023-02-24T04:32:08.688Z,2.95
2023-02-24T04:35:01.786Z,2.98
2023-02-24T04:37:47.926Z,2.96
2023-02-24T04:40:36.760Z,2.92
2023-02-24T04:43:22.896Z,2.93
2023-02-24T04:46:09.142Z,2.92
2023-02-24T04:48:57.129Z,2.93
2023-02-24T04:51:43.157Z,2.94
2023-02-24T04:54:29.687Z,2.95
2023-02-24T04:57:15.530Z,2.91
2023-02-24T05:00:01.295Z,2.91
2023-02-24T05:02:48.244Z,2.89
2023-02-24T05:05:36.013Z,2.92
2023-02-24T05:08:21.876Z,2.89
2023-02-24T05:11:08.338Z,2.88
2023-02-24T05:13:54.038Z,2.85
2023-02-24T05:16:39.901Z,2.84
2023-02-24T05:19:43.492Z,2.84
2023-02-24T05:22:30.913Z,2.82
2023-02-24T05:25:16.760Z,2.83
2023-02-24T05:28:03.917Z,2.78
2023-02-24T05:30:49.628Z,2.80
2023-02-24T05:33:36.036Z,2.81
2023-02-24T05:36:22.433Z,2.79
2023-02-24T05:39:12.227Z,2.78
2023-02-24T05:41:58.421Z,2.76
2023-02-24T05:44:44.243Z,2.76
2023-02-24T05:47:30.256Z,2.75
2023-02-24T05:50:17.555Z,2.70
2023-02-24T05:53:03.841Z,2.74
2023-02-24T05:55:50.890Z,2.75
2023-02-24T05:58:39.165Z,2.71
2023-02-24T06:01:25.219Z,2.73
2023-02-24T06:04:10.973Z,2.71
2023-02-24T06:06:56.738Z,2.69
2023-02-24T06:09:44.814Z,2.66
2023-02-24T06:12:33.620Z,2.68
2023-02-24T06:15:20.084Z,2.67
2023-02-24T06:18:06.980Z,2.64
2023-02-24T06:20:53.857Z,2.67
2023-02-24T06:23:40.165Z,2.68
2023-02-24T06:26:29.814Z,2.65
2023-02-24T06:29:18.150Z,2.63
2023-02-24T06:32:08.728Z,2.68
2023-02-24T06:34:54.759Z,2.68
2023-02-24T06:37:41.073Z,2.68
2023-02-24T06:40:27.035Z,2.69
2023-02-24T06:43:13.009Z,2.68
2023-02-24T06:46:00.327Z,2.71
2023-02-24T06:48:48.020Z,2.70
2023-02-24T06:51:34.028Z,2.74
2023-02-24T06:54:20.070Z,2.73
2023-02-24T06:57:06.267Z,2.77
2023-02-24T06:59:52.265Z,2.77
2023-02-24T07:02:39.784Z,2.77
2023-02-24T07:05:27.278Z,2.78
2023-02-24T07:08:13.273Z,2.80
2023-02-24T07:10:59.833Z,2.76
2023-02-24T07:13:47.105Z,2.77
2023-02-24T07:16:34.617Z,2.77
2023-02-24T07:19:22.815Z,2.79
2023-02-24T07:22:09.917Z,2.84
2023-02-24T07:25:00.396Z,2.85
2023-02-24T07:27:47.393Z,2.85
2023-02-24T07:30:34.158Z,2.86
2023-02-24T07:33:20.245Z,2.83
2023-02-24T07:36:09.364Z,2.88
2023-02-24T07:38:55.404Z,2.91
2023-02-24T07:41:45.331Z,2.94
2023-02-24T07:44:31.386Z,2.94
2023-02-24T07:47:17.198Z,2.96
2023-02-24T07:50:05.985Z,2.98
2023-02-24T07:52:53.172Z,2.97
2023-02-24T07:55:38.856Z,3.03
2023-02-24T07:58:24.697Z,3.02
2023-02-24T08:01:17.837Z,3.08
2023-02-24T08:04:07.900Z,3.05
2023-02-24T08:06:56.778Z,3.06
2023-02-24T08:10:03.883Z,3.06
2023-02-24T08:12:52.531Z,3.06
2023-02-24T08:15:38.624Z,3.13
2023-02-24T08:18:28.325Z,3.15
2023-02-24T08:21:14.138Z,3.12
2023-02-24T08:24:02.366Z,3.13
2023-02-24T08:27:04.106Z,3.13
2023-02-24T08:29:59.838Z,3.07
2023-02-24T08:32:46.709Z,3.08
2023-02-24T08:35:35.709Z,3.01
2023-02-24T08:38:25.923Z,2.98
2023-02-24T08:41:13.094Z,2.96
2023-02-24T08:44:02.879Z,2.93
2023-02-24T08:46:50.116Z,2.91
2023-02-24T08:49:36.124Z,2.90
2023-02-24T08:52:21.737Z,2.94
2023-02-24T08:55:10.578Z,2.91
2023-02-24T08:58:01.457Z,2.88
2023-02-24T09:00:49.904Z,2.91
2023-02-24T09:03:35.946Z,2.88
2023-02-24T09:06:25.368Z,2.83
2023-02-24T09:09:18.239Z,2.87
2023-02-24T09:12:05.763Z,2.81
2023-02-24T09:14:55.340Z,2.86
2023-02-24T09:17:49.695Z,2.91
2023-02-24T09:20:53.511Z,2.84
2023-02-24T09:23:45.880Z,2.84
2023-02-24T09:26:43.001Z,2.83
2023-02-24T09:29:34.762Z,2.84
2023-02-24T09:32:21.004Z,2.83
2023-02-24T09:35:08.924Z,2.75
2023-02-24T09:37:56.826Z,2.73
2023-02-24T09:40:48.825Z,2.73
2023-02-24T09:43:44.074Z,2.76
2023-02-24T09:46:34.743Z,2.76
2023-02-24T09:49:23.798Z,2.77
2023-02-24T09:52:17.327Z,2.77
2023-02-24T09:55:24.919Z,2.85
2023-02-24T09:58:34.855Z,2.84
2023-02-24T10:01:33.397Z,2.81
2023-02-24T10:04:22.977Z,2.84
2023-02-24T10:07:11.499Z,2.80
2023-02-24T10:10:19.280Z,2.74
2023-02-24T10:13:14.713Z,2.79
2023-02-24T10:16:06.888Z,2.77
2023-02-24T10:19:00.970Z,2.69
2023-02-24T10:21:49.609Z,2.63
2023-02-24T10:24:38.015Z,2.66
2023-02-24T10:27:26.548Z,2.59
2023-02-24T10:30:19.642Z,2.63
2023-02-24T10:33:06.021Z,2.68
2023-02-24T10:35:54.314Z,2.78
2023-02-24T10:38:45.271Z,2.84
2023-02-24T10:41:38.049Z,2.90
2023-02-24T10:44:26.703Z,2.97
2023-02-24T10:47:13.285Z,2.96
2023-02-24T10:49:59.759Z,2.98
2023-02-24T10:53:11.069Z,3.02
2023-02-24T10:56:15.150Z,3.11
2023-02-24T10:59:20.491Z,3.18
2023-02-24T11:02:24.609Z,3.16
2023-02-24T11:05:37.920Z,3.16
2023-02-24T11:08:54.239Z,3.08
2023-02-24T11:11:54.278Z,3.18
2023-02-24T11:14:58.532Z,3.27
2023-02-24T11:17:48.716Z,3.23
2023-02-24T11:20:47.818Z,3.17
2023-02-24T11:23:35.503Z,3.21
2023-02-24T11:26:22.225Z,3.20
2023-02-24T11:29:13.094Z,3.15
2023-02-24T11:32:11.563Z,3.11
2023-02-24T11:35:01.203Z,3.14
2023-02-24T11:37:47.650Z,3.16
2023-02-24T11:40:34.031Z,3.14
2023-02-24T11:43:20.760Z,3.10
2023-02-24T11:46:09.508Z,3.15
2023-02-24T11:48:56.890Z,3.21
2023-02-24T11:51:44.618Z,3.10
2023-02-24T11:54:31.146Z,3.10
2023-02-24T11:57:18.814Z,3.09
2023-02-24T12:00:13.205Z,3.08
2023-02-24T12:03:02.235Z,2.96
2023-02-24T12:05:50.068Z,3.04
2023-02-24T12:08:38.004Z,3.03
2023-02-24T12:11:27.273Z,3.07
2023-02-24T12:14:16.015Z,3.08
2023-02-24T12:17:04.231Z,3.09
2023-02-24T12:19:52.633Z,2.99
2023-02-24T12:22:44.614Z,3.00
2023-02-24T12:25:33.485Z,2.94
2023-02-24T12:28:23.504Z,2.98
2023-02-24T12:31:14.293Z,2.97
2023-02-24T12:34:02.890Z,2.97
2023-02-24T12:36:52.961Z,2.94
2023-02-24T12:39:40.254Z,2.91
2023-02-24T12:42:29.498Z,2.78
2023-02-24T12:45:17.367Z,2.76
2023-02-24T12:48:04.831Z,2.73
2023-02-24T12:50:51.741Z,2.75
2023-02-24T12:53:39.253Z,2.74
2023-02-24T12:56:25.853Z,2.72
2023-02-24T12:59:13.589Z,2.73
2023-02-24T13:02:00.744Z,2.73
2023-02-24T13:04:49.862Z,2.76
2023-02-24T13:07:38.234Z,2.75
2023-02-24T13:10:29.085Z,2.79
2023-02-24T13:13:16.391Z,2.82
2023-02-24T13:16:03.987Z,2.80
2023-02-24T13:18:49.896Z,2.74
2023-02-24T13:21:35.557Z,2.78
2023-02-24T13:24:22.358Z,2.82
2023-02-24T13:27:14.810Z,2.81
2023-02-24T13:30:01.382Z,2.84
2023-02-24T13:32:59.392Z,2.76
2023-02-24T13:35:45.550Z,2.80
2023-02-24T13:38:36.629Z,2.79
2023-02-24T13:41:24.813Z,2.82
2023-02-24T13:44:27.169Z,2.91
2023-02-24T13:47:31.011Z,2.95
2023-02-24T13:50:25.239Z,2.94
2023-02-24T13:53:18.084Z,2.92
2023-02-24T13:56:09.738Z,2.97
2023-02-24T13:59:04.943Z,3.07
2023-02-24T14:01:51.465Z,3.06
2023-02-24T14:04:39.298Z,3.08
2023-02-24T14:07:27.265Z,3.11
2023-02-24T14:10:15.636Z,3.15
2023-02-24T14:13:04.659Z,3.14
2023-02-24T14:15:50.756Z,3.18
2023-02-24T14:18:37.278Z,3.25
2023-02-24T14:21:24.302Z,3.24
2023-02-24T14:24:12.732Z,3.27
2023-02-24T14:26:58.866Z,3.32
2023-02-24T14:29:44.970Z,3.37
2023-02-24T14:32:31.000Z,3.38
2023-02-24T14:35:21.038Z,3.36
2023-02-24T14:38:07.048Z,3.43
2023-02-24T14:40:54.231Z,3.42
2023-02-24T14:43:41.724Z,3.42
2023-02-24T14:46:27.780Z,3.49
2023-02-24T14:49:14.856Z,3.50
2023-02-24T14:52:01.545Z,3.54
2023-02-24T14:54:48.890Z,3.59
2023-02-24T14:57:36.652Z,3.61
2023-02-24T15:00:24.748Z,3.61
2023-02-24T15:03:11.885Z,3.63
2023-02-24T15:05:59.218Z,3.59
2023-02-24T15:08:46.621Z,3.64
2023-02-24T15:11:32.767Z,3.71
2023-02-24T15:14:22.173Z,3.75
2023-02-24T15:17:09.799Z,3.73
2023-02-24T15:19:55.723Z,3.78
2023-02-24T15:22:50.010Z,3.75
2023-02-24T15:25:43.475Z,3.82
2023-02-24T15:28:31.592Z,3.84
2023-02-24T15:31:19.779Z,3.80
2023-02-24T15:34:06.138Z,3.85
2023-02-24T15:36:52.308Z,3.84
2023-02-24T15:39:38.150Z,3.85
2023-02-24T15:42:28.110Z,3.81
2023-02-24T15:45:24.568Z,3.82
2023-02-24T15:48:21.481Z,3.80
2023-02-24T15:51:07.235Z,3.80
2023-02-24T15:53:53.049Z,3.85
2023-02-24T15:56:39.286Z,3.85
2023-02-24T15:59:25.055Z,3.82
2023-02-24T16:02:12.991Z,3.81
2023-02-24T16:05:00.509Z,3.84
2023-02-24T16:07:46.546Z,3.83
2023-02-24T16:10:32.543Z,3.83
2023-02-24T16:13:20.113Z,3.81
2023-02-24T16:16:06.770Z,3.83
2023-02-24T16:18:53.343Z,3.83
2023-02-24T16:21:41.049Z,3.79
2023-02-24T16:24:26.779Z,3.83
2023-02-24T16:27:14.142Z,3.84
2023-02-24T16:29:59.940Z,3.83
2023-02-24T16:32:45.629Z,3.86
2023-02-24T16:35:32.110Z,3.82
2023-02-24T16:38:19.336Z,3.81
2023-02-24T16:41:05.468Z,3.82
2023-02-24T16:43:51.393Z,3.85
2023-02-24T16:46:39.956Z,3.86
2023-02-24T16:49:25.841Z,3.81
2023-02-24T16:52:11.948Z,3.81
2023-02-24T16:55:01.869Z,3.83
2023-02-24T16:57:47.598Z,3.82
2023-02-24T17:00:33.380Z,3.81
2023-02-24T17:03:20.466Z,3.84
2023-02-24T17:06:06.522Z,3.83
2023-02-24T17:08:52.874Z,3.83
2023-02-24T17:11:39.884Z,3.88
2023-02-24T17:14:25.680Z,3.89
2023-02-24T17:17:11.985Z,3.87
2023-02-24T17:19:58.308Z,3.90
2023-02-24T17:22:44.644Z,3.87
2023-02-24T17:25:30.922Z,3.86
2023-02-24T17:28:18.510Z,3.90
2023-02-24T17:31:05.167Z,3.89
2023-02-24T17:33:51.091Z,3.88
2023-02-24T17:36:36.913Z,3.90
2023-02-24T17:39:22.705Z,3.92
2023-02-24T17:42:08.543Z,3.90
2023-02-24T17:44:55.895Z,3.92
2023-02-24T17:47:41.903Z,3.96
2023-02-24T17:50:28.106Z,3.96
2023-02-24T17:53:13.824Z,4.00
2023-02-24T17:56:03.595Z,3.99
2023-02-24T17:58:49.703Z,3.93
2023-02-24T18:01:37.039Z,4.02
2023-02-24T18:04:22.674Z,4.03
2023-02-24T18:07:08.567Z,4.04
2023-02-24T18:09:54.298Z,4.03
2023-02-24T18:12:40.032Z,4.03
2023-02-24T18:15:25.905Z,4.05
2023-02-24T18:18:13.457Z,4.06
2023-02-24T18:21:02.702Z,4.06
2023-02-24T18:23:49.570Z,4.09
2023-02-24T18:26:35.604Z,4.12
2023-02-24T18:29:21.468Z,4.11
2023-02-24T18:32:07.486Z,4.05
2023-02-24T18:34:54.836Z,4.07
2023-02-24T18:37:40.749Z,4.11
2023-02-24T18:40:27.979Z,4.10
2023-02-24T18:43:13.916Z,4.08
2023-02-24T18:45:59.945Z,4.08
2023-02-24T18:48:45.972Z,4.10
2023-02-24T18:51:32.998Z,4.12
2023-02-24T18:54:20.095Z,4.13
2023-02-24T18:57:06.247Z,4.12
2023-02-24T18:59:52.025Z,3.98
2023-02-24T19:02:37.935Z,3.98
2023-02-24T19:05:24.956Z,4.00
2023-02-24T19:08:13.297Z,3.84
2023-02-24T19:10:59.022Z,3.85
2023-02-24T19:13:44.815Z,3.83
2023-02-24T19:16:30.905Z,3.83
2023-02-24T19:19:17.207Z,3.82
2023-02-24T19:22:02.873Z,3.83
2023-02-24T19:24:50.217Z,3.83
2023-02-24T19:27:36.605Z,3.83
2023-02-24T19:30:22.600Z,3.80
2023-02-24T19:33:09.463Z,3.80
2023-02-24T19:35:58.445Z,3.80
2023-02-24T19:38:44.477Z,3.75
2023-02-24T19:41:31.666Z,3.77
2023-02-24T19:44:17.461Z,3.76
2023-02-24T19:47:03.634Z,3.76
2023-02-24T19:49:49.703Z,3.75
2023-02-24T19:52:35.560Z,3.74
2023-02-24T19:55:21.247Z,3.69
2023-02-24T19:58:08.511Z,3.64
2023-02-24T20:00:54.362Z,3.59
2023-02-24T20:03:40.671Z,3.55
2023-02-24T20:06:28.096Z,3.54
2023-02-24T20:09:15.926Z,3.54
2023-02-24T20:12:02.178Z,3.52
2023-02-24T20:14:50.305Z,3.49
2023-02-24T20:17:36.439Z,3.51
2023-02-24T20:20:22.829Z,3.49
2023-02-24T20:23:08.646Z,3.48
2023-02-24T20:25:54.882Z,3.45
2023-02-24T20:28:40.968Z,3.43
2023-02-24T20:31:28.090Z,3.43
2023-02-24T20:34:16.447Z,3.43
2023-02-24T20:37:02.081Z,3.42
2023-02-24T20:39:48.601Z,3.43
2023-02-24T20:42:34.794Z,3.45
2023-02-24T20:45:20.500Z,3.44
2023-02-24T20:48:08.736Z,3.42
2023-02-24T20:50:54.723Z,3.43
2023-02-24T20:53:56.142Z,3.43
2023-02-24T20:56:44.218Z,3.44
2023-02-24T20:59:30.058Z,3.46
2023-02-24T21:02:15.872Z,3.44
2023-02-24T21:05:03.065Z,3.44
2023-02-24T21:07:49.834Z,3.42
2023-02-24T21:10:35.723Z,3.49
2023-02-24T21:13:21.769Z,3.47
2023-02-24T21:16:09.215Z,3.45
2023-02-24T21:18:56.212Z,3.47
2023-02-24T21:21:43.609Z,3.47
2023-02-24T21:24:30.412Z,3.50
2023-02-24T21:27:16.480Z,3.51
2023-02-24T21:30:02.286Z,3.48
2023-02-24T21:32:48.482Z,3.46
2023-02-24T21:35:34.580Z,3.44
2023-02-24T21:38:21.749Z,3.46
2023-02-24T21:41:09.904Z,3.47
2023-02-24T21:43:56.091Z,3.44
2023-02-24T21:46:42.210Z,3.44
2023-02-24T21:49:28.342Z,3.45
2023-02-24T21:52:14.835Z,3.36
2023-02-24T21:55:02.032Z,3.36
2023-02-24T21:57:48.174Z,3.34
2023-02-24T22:00:33.896Z,3.37
2023-02-24T22:03:19.785Z,3.37
2023-02-24T22:06:06.246Z,3.39
2023-02-24T22:08:52.473Z,3.44
2023-02-24T22:11:40.732Z,3.46
2023-02-24T22:14:26.374Z,3.45
2023-02-24T22:17:12.175Z,3.40
2023-02-24T22:19:58.093Z,3.40
2023-02-24T22:22:44.306Z,3.42
2023-02-24T22:25:30.125Z,3.37
2023-02-24T22:28:17.917Z,3.36
2023-02-24T22:31:04.003Z,3.34
2023-02-24T22:33:50.447Z,3.35
2023-02-24T22:36:37.243Z,3.37
2023-02-24T22:39:23.382Z,3.36
2023-02-24T22:42:09.408Z,3.34
2023-02-24T22:44:56.615Z,3.38
2023-02-24T22:47:42.712Z,3.37
2023-02-24T22:50:29.040Z,3.36
2023-02-24T22:53:14.727Z,3.38
2023-02-24T22:56:00.546Z,3.38
2023-02-24T22:58:46.937Z,3.37
2023-02-24T23:01:34.793Z,3.37
2023-02-24T23:04:20.861Z,3.38
2023-02-24T23:07:06.968Z,3.39
2023-02-24T23:09:53.522Z,3.42
2023-02-24T23:12:39.260Z,3.34
2023-02-24T23:15:25.127Z,3.34
2023-02-24T23:18:13.860Z,3.37
2023-02-24T23:21:00.720Z,3.37
2023-02-24T23:23:46.938Z,3.39
2023-02-24T23:26:33.430Z,3.37
2023-02-24T23:29:19.565Z,3.39
2023-02-24T23:32:05.434Z,3.40
2023-02-24T23:34:53.952Z,3.42
2023-02-24T23:37:40.203Z,3.44
2023-02-24T23:40:26.452Z,3.41
2023-02-24T23:43:12.670Z,3.46
2023-02-24T23:45:58.783Z,3.44
2023-02-24T23:48:45.618Z,3.44
2023-02-24T23:51:46.958Z,3.43
2023-02-24T23:54:33.611Z,3.42
2023-02-24T23:57:19.644Z,3.42
